createdAt,value
2022-12-05T00:01:37.824Z,94262.81
2022-12-05T00:04:08.720Z,94270.69
2022-12-05T00:06:38.352Z,94276.00
2022-12-05T00:09:07.199Z,94259.75
2022-12-05T00:11:39.194Z,94262.53
2022-12-05T00:14:08.743Z,94269.78
2022-12-05T00:16:38.543Z,94297.09
2022-12-05T00:19:07.574Z,94301.00
2022-12-05T00:21:36.837Z,94312.50
2022-12-05T00:24:08.082Z,94311.72
2022-12-05T00:26:35.041Z,94328.78
2022-12-05T00:29:02.060Z,94318.34
2022-12-05T00:31:29.061Z,94336.13
2022-12-05T00:33:59.503Z,94330.22
2022-12-05T00:36:30.008Z,94332.34
2022-12-05T00:39:01.098Z,94311.38
2022-12-05T00:41:29.597Z,94320.44
2022-12-05T00:43:59.200Z,94309.91
2022-12-05T00:46:28.510Z,94317.59
2022-12-05T00:48:58.169Z,94303.72
2022-12-05T00:51:31.557Z,94306.63
2022-12-05T00:54:01.781Z,94297.78
2022-12-05T00:56:31.135Z,94299.88
2022-12-05T00:58:59.729Z,94294.34
2022-12-05T01:01:32.713Z,94312.97
2022-12-05T01:04:12.861Z,94324.44
2022-12-05T01:06:40.076Z,94317.47
2022-12-05T01:09:08.046Z,94324.28
2022-12-05T01:11:40.956Z,94338.91
2022-12-05T01:14:10.331Z,94350.91
2022-12-05T01:16:39.551Z,94361.44
2022-12-05T01:19:30.523Z,94367.44
2022-12-05T01:21:57.765Z,94355.16
2022-12-05T01:24:26.232Z,94354.94
2022-12-05T01:26:53.765Z,94343.13
2022-12-05T01:29:22.607Z,94382.00
2022-12-05T01:31:49.846Z,94402.53
2022-12-05T01:34:18.035Z,94404.78
2022-12-05T01:36:45.480Z,94408.72
2022-12-05T01:39:13.805Z,94426.22
2022-12-05T01:41:49.725Z,94444.41
2022-12-05T01:44:16.420Z,94431.56
2022-12-05T01:46:49.196Z,94424.59
2022-12-05T01:49:23.465Z,94418.09
2022-12-05T01:51:55.738Z,94407.72
2022-12-05T01:54:23.739Z,94409.63
2022-12-05T01:57:03.147Z,94419.03
2022-12-05T01:59:35.807Z,94418.09
2022-12-05T02:02:03.510Z,94412.91
2022-12-05T02:04:31.083Z,94399.78
2022-12-05T02:06:57.809Z,94408.91
2022-12-05T02:09:24.646Z,94421.41
2022-12-05T02:11:57.323Z,94415.03
2022-12-05T02:14:45.372Z,94425.41
2022-12-05T02:17:58.105Z,94416.22
2022-12-05T02:21:14.321Z,94411.25
2022-12-05T02:24:42.193Z,94423.13
2022-12-05T02:27:55.670Z,94400.06
2022-12-05T02:30:24.404Z,94421.25
2022-12-05T02:33:20.212Z,94407.47
2022-12-05T02:35:52.307Z,94416.66
2022-12-05T02:38:26.718Z,94420.91
2022-12-05T02:41:10.710Z,94417.34
2022-12-05T02:44:07.505Z,94417.59
2022-12-05T02:46:38.453Z,94419.00
2022-12-05T02:49:11.168Z,94416.41
2022-12-05T02:51:48.490Z,94415.84
2022-12-05T02:54:21.167Z,94438.00
2022-12-05T02:56:49.829Z,94436.22
2022-12-05T02:59:22.920Z,94434.81
2022-12-05T03:01:50.863Z,94435.28
2022-12-05T03:04:21.633Z,94435.72
2022-12-05T03:07:04.031Z,94419.81
2022-12-05T03:09:50.276Z,94434.69
2022-12-05T03:12:26.275Z,94429.28
2022-12-05T03:15:11.045Z,94432.19
2022-12-05T03:18:14.346Z,94427.94
2022-12-05T03:20:52.436Z,94422.88
2022-12-05T03:23:41.805Z,94421.84
2022-12-05T03:26:45.006Z,94421.50
2022-12-05T03:29:17.817Z,94419.09
2022-12-05T03:32:06.240Z,94428.78
2022-12-05T03:34:38.067Z,94442.81
2022-12-05T03:37:38.412Z,94431.88
2022-12-05T03:40:33.293Z,94443.28
2022-12-05T03:43:16.461Z,94446.03
2022-12-05T03:45:53.018Z,94449.19
2022-12-05T03:48:43.244Z,94442.25
2022-12-05T03:51:13.085Z,94444.47
2022-12-05T03:53:58.887Z,94434.56
2022-12-05T03:56:34.168Z,94443.28
2022-12-05T03:59:13.992Z,94440.19
2022-12-05T04:01:44.001Z,94431.50
2022-12-05T04:04:26.952Z,94440.66
2022-12-05T04:06:58.057Z,94426.22
2022-12-05T04:09:33.033Z,94431.97
2022-12-05T04:12:05.726Z,94442.59
2022-12-05T04:14:47.901Z,94435.97
2022-12-05T04:17:30.183Z,94426.09
2022-12-05T04:20:29.169Z,94431.16
2022-12-05T04:22:56.021Z,94445.78
2022-12-05T04:25:34.436Z,94456.28
2022-12-05T04:28:55.472Z,94476.09
2022-12-05T04:31:27.969Z,94479.88
2022-12-05T04:34:05.419Z,94486.91
2022-12-05T04:36:52.324Z,94478.81
2022-12-05T04:39:35.183Z,94465.25
2022-12-05T04:42:07.335Z,94466.53
2022-12-05T04:44:51.198Z,94475.84
2022-12-05T04:47:21.934Z,94474.31
2022-12-05T04:49:54.331Z,94476.09
2022-12-05T04:52:23.000Z,94488.00
2022-12-05T04:55:08.260Z,94489.78
2022-12-05T04:57:45.448Z,94489.28
2022-12-05T05:00:12.749Z,94484.31
2022-12-05T05:03:05.517Z,94485.72
2022-12-05T05:05:35.580Z,94480.53
2022-12-05T05:08:02.367Z,94463.25
2022-12-05T05:11:05.989Z,94473.00
2022-12-05T05:13:32.640Z,94476.19
2022-12-05T05:15:59.442Z,94485.50
2022-12-05T05:18:26.277Z,94494.56
2022-12-05T05:20:53.109Z,94491.38
2022-12-05T05:23:19.868Z,94505.75
2022-12-05T05:25:50.020Z,94504.84
2022-12-05T05:28:16.753Z,94516.63
2022-12-05T05:30:43.518Z,94514.03
2022-12-05T05:33:10.269Z,94510.47
2022-12-05T05:35:37.602Z,94518.94
2022-12-05T05:38:04.665Z,94514.84
2022-12-05T05:40:31.495Z,94518.38
2022-12-05T05:42:58.248Z,94525.81
2022-12-05T05:45:25.018Z,94521.81
2022-12-05T05:47:51.768Z,94513.19
2022-12-05T05:50:21.835Z,94515.91
2022-12-05T05:52:48.892Z,94497.53
2022-12-05T05:55:15.680Z,94511.78
2022-12-05T05:57:42.395Z,94505.53
2022-12-05T06:00:10.105Z,94525.94
2022-12-05T06:02:37.623Z,94511.91
2022-12-05T06:05:05.750Z,94518.13
2022-12-05T06:07:32.629Z,94510.94
2022-12-05T06:09:59.759Z,94505.03
2022-12-05T06:12:26.820Z,94526.72
2022-12-05T06:14:53.721Z,94532.41
2022-12-05T06:17:20.578Z,94537.81
2022-12-05T06:19:47.421Z,94544.16
2022-12-05T06:22:14.309Z,94545.38
2022-12-05T06:24:41.115Z,94550.09
2022-12-05T06:27:07.976Z,94558.78
2022-12-05T06:29:35.810Z,94555.13
2022-12-05T06:32:03.422Z,94562.66
2022-12-05T06:34:32.594Z,94548.66
2022-12-05T06:37:00.194Z,94569.28
2022-12-05T06:39:27.361Z,94574.34
2022-12-05T06:41:54.166Z,94566.09
2022-12-05T06:44:22.298Z,94567.25
2022-12-05T06:46:49.347Z,94572.94
2022-12-05T06:49:16.176Z,94565.38
2022-12-05T06:51:42.959Z,94576.59
2022-12-05T06:54:13.060Z,94581.44
2022-12-05T06:56:40.020Z,94573.66
2022-12-05T06:59:07.144Z,94576.69
2022-12-05T07:01:41.083Z,94574.78
2022-12-05T07:04:16.285Z,94577.25
2022-12-05T07:06:50.309Z,94574.34
2022-12-05T07:09:23.052Z,94577.66
2022-12-05T07:11:51.263Z,94591.53
2022-12-05T07:14:45.936Z,94594.13
2022-12-05T07:17:05.573Z,94608.66
2022-12-05T07:19:32.325Z,94595.78
2022-12-05T07:21:59.084Z,94595.06
2022-12-05T07:24:26.166Z,94612.53
2022-12-05T07:26:52.980Z,94620.31
2022-12-05T07:29:19.866Z,94614.19
2022-12-05T07:31:46.710Z,94619.13
2022-12-05T07:34:13.533Z,94616.28
2022-12-05T07:36:40.336Z,94618.91
2022-12-05T07:39:07.073Z,94623.81
2022-12-05T07:41:35.155Z,94614.91
2022-12-05T07:44:02.101Z,94630.94
2022-12-05T07:46:29.502Z,94629.22
2022-12-05T07:48:56.495Z,94628.53
2022-12-05T07:51:23.352Z,94635.28
2022-12-05T07:53:50.383Z,94642.69
2022-12-05T07:56:18.436Z,94630.50
2022-12-05T07:58:49.013Z,94627.72
2022-12-05T08:01:27.997Z,94639.50
2022-12-05T08:03:59.235Z,94640.72
2022-12-05T08:06:29.947Z,94638.81
2022-12-05T08:08:57.748Z,94648.13
2022-12-05T08:11:32.124Z,94645.41
2022-12-05T08:14:03.864Z,94647.88
2022-12-05T08:16:32.484Z,94655.69
2022-12-05T08:19:08.134Z,94648.13
2022-12-05T08:21:35.634Z,94648.97
2022-12-05T08:24:05.986Z,94657.31
2022-12-05T08:26:34.907Z,94636.69
2022-12-05T08:29:06.547Z,94655.88
2022-12-05T08:31:37.133Z,94652.59
2022-12-05T08:34:03.946Z,94655.19
2022-12-05T08:36:31.695Z,94663.44
2022-12-05T08:39:02.065Z,94670.41
2022-12-05T08:41:30.328Z,94664.28
2022-12-05T08:44:03.114Z,94670.06
2022-12-05T08:46:31.739Z,94658.88
2022-12-05T08:48:58.667Z,94665.78
2022-12-05T08:51:26.227Z,94674.56
2022-12-05T08:53:52.959Z,94682.78
2022-12-05T08:56:26.355Z,94674.63
2022-12-05T08:58:53.731Z,94676.50
2022-12-05T09:01:22.348Z,94684.19
2022-12-05T09:03:49.323Z,94684.69
2022-12-05T09:06:25.439Z,94692.47
2022-12-05T09:09:04.846Z,94703.44
2022-12-05T09:11:36.437Z,94697.38
2022-12-05T09:14:06.217Z,94697.16
2022-12-05T09:16:38.381Z,94699.09
2022-12-05T09:19:07.131Z,94701.19
2022-12-05T09:21:33.847Z,94697.16
2022-12-05T09:24:01.365Z,94689.81
2022-12-05T09:26:30.209Z,94695.03
2022-12-05T09:28:57.826Z,94712.97
2022-12-05T09:31:27.468Z,94721.34
2022-12-05T09:33:54.867Z,94724.56
2022-12-05T09:36:25.661Z,94726.44
2022-12-05T09:38:53.789Z,94712.25
2022-12-05T09:42:23.668Z,94732.66
2022-12-05T09:45:24.002Z,94713.06
2022-12-05T09:48:12.682Z,94724.03
2022-12-05T09:50:49.298Z,94715.75
2022-12-05T09:53:30.835Z,94717.63
2022-12-05T09:56:05.939Z,94705.81
2022-12-05T09:58:53.865Z,94707.13
2022-12-05T10:01:51.541Z,94718.19
2022-12-05T10:05:00.835Z,94713.53
2022-12-05T10:07:52.766Z,94709.25
2022-12-05T10:10:43.720Z,94710.00
2022-12-05T10:13:30.031Z,94714.78
2022-12-05T10:16:07.534Z,94716.09
2022-12-05T10:18:43.011Z,94704.75
2022-12-05T10:21:09.790Z,94699.28
2022-12-05T10:24:03.120Z,94692.84
2022-12-05T10:26:33.140Z,94685.03
2022-12-05T10:29:33.292Z,94690.69
2022-12-05T10:32:14.797Z,94680.34
2022-12-05T10:34:43.980Z,94680.00
2022-12-05T10:37:16.352Z,94686.59
2022-12-05T10:39:44.158Z,94687.25
2022-12-05T10:42:30.525Z,94692.72
2022-12-05T10:45:03.277Z,94694.34
2022-12-05T10:47:31.665Z,94685.31
2022-12-05T10:50:06.812Z,94686.16
2022-12-05T10:52:33.724Z,94688.63
2022-12-05T10:55:07.143Z,94696.38
2022-12-05T10:57:33.947Z,94714.09
2022-12-05T11:00:13.585Z,94705.91
2022-12-05T11:02:44.015Z,94706.03
2022-12-05T11:05:11.222Z,94691.69
2022-12-05T11:07:43.980Z,94689.78
2022-12-05T11:10:27.165Z,94694.28
2022-12-05T11:12:57.921Z,94694.16
2022-12-05T11:15:31.156Z,94685.53
2022-12-05T11:18:18.661Z,94679.88
2022-12-05T11:20:45.569Z,94671.63
2022-12-05T11:23:28.800Z,94689.66
2022-12-05T11:25:58.403Z,94683.06
2022-12-05T11:28:34.446Z,94681.16
2022-12-05T11:31:14.377Z,94685.41
2022-12-05T11:33:41.458Z,94677.84
2022-12-05T11:36:44.123Z,94674.03
2022-12-05T11:39:14.373Z,94690.88
2022-12-05T11:42:19.027Z,94685.94
2022-12-05T11:45:16.181Z,94684.16
2022-12-05T11:48:16.749Z,94681.31
2022-12-05T11:51:00.424Z,94666.50
2022-12-05T11:53:55.921Z,94679.00
2022-12-05T11:56:36.386Z,94692.00
2022-12-05T11:59:30.732Z,94687.38
2022-12-05T12:02:24.368Z,94678.28
2022-12-05T12:05:16.197Z,94675.28
2022-12-05T12:08:19.444Z,94682.28
2022-12-05T12:11:04.143Z,94688.03
2022-12-05T12:13:58.396Z,94688.44
2022-12-05T12:16:40.002Z,94691.56
2022-12-05T12:19:16.846Z,94686.47
2022-12-05T12:22:05.742Z,94691.56
2022-12-05T12:25:08.644Z,94687.56
2022-12-05T12:28:19.410Z,94687.06
2022-12-05T12:31:13.200Z,94673.78
2022-12-05T12:34:05.901Z,94677.84
2022-12-05T12:36:43.986Z,94675.69
2022-12-05T12:40:05.020Z,94671.16
2022-12-05T12:42:47.494Z,94667.44
2022-12-05T12:45:49.463Z,94671.41
2022-12-05T12:49:01.822Z,94665.72
2022-12-05T12:51:31.795Z,94658.31
2022-12-05T12:54:47.336Z,94653.22
2022-12-05T12:57:47.924Z,94644.72
2022-12-05T13:01:08.006Z,94650.91
2022-12-05T13:03:51.716Z,94643.03
2022-12-05T13:06:30.010Z,94651.44
2022-12-05T13:09:24.474Z,94660.78
2022-12-05T13:11:53.456Z,94651.19
2022-12-05T13:14:25.332Z,94657.22
2022-12-05T13:16:54.994Z,94651.09
2022-12-05T13:19:54.456Z,94655.47
2022-12-05T13:22:24.191Z,94662.44
2022-12-05T13:24:52.481Z,94667.41
2022-12-05T13:27:25.884Z,94667.41
2022-12-05T13:30:01.761Z,94678.53
2022-12-05T13:32:41.167Z,94672.78
2022-12-05T13:35:11.638Z,94672.66
2022-12-05T13:38:05.737Z,94681.00
2022-12-05T13:40:59.470Z,94672.88
2022-12-05T13:43:29.300Z,94677.84
2022-12-05T13:46:19.858Z,94677.00
2022-12-05T13:48:49.406Z,94680.84
2022-12-05T13:51:38.426Z,94673.97
2022-12-05T13:54:18.644Z,94682.75
2022-12-05T13:57:05.142Z,94678.63
2022-12-05T14:00:07.647Z,94675.06
2022-12-05T14:02:43.497Z,94679.84
2022-12-05T14:05:19.063Z,94670.94
2022-12-05T14:08:02.272Z,94670.22
2022-12-05T14:10:31.565Z,94669.25
2022-12-05T14:13:02.696Z,94662.66
2022-12-05T14:15:37.961Z,94670.91
2022-12-05T14:18:39.021Z,94666.41
2022-12-05T14:21:22.082Z,94679.03
2022-12-05T14:24:07.547Z,94662.41
2022-12-05T14:26:49.028Z,94672.03
2022-12-05T14:29:25.929Z,94673.69
2022-12-05T14:32:23.021Z,94663.63
2022-12-05T14:35:01.123Z,94677.13
2022-12-05T14:38:00.804Z,94654.16
2022-12-05T14:40:33.109Z,94658.16
2022-12-05T14:43:05.761Z,94662.66
2022-12-05T14:45:39.040Z,94664.88
2022-12-05T14:48:33.185Z,94660.75
2022-12-05T14:51:00.992Z,94653.63
2022-12-05T14:53:41.011Z,94658.59
2022-12-05T14:56:21.577Z,94655.53
2022-12-05T14:59:19.272Z,94657.91
2022-12-05T15:01:52.589Z,94643.16
2022-12-05T15:04:47.871Z,94658.16
2022-12-05T15:07:33.076Z,94656.75
2022-12-05T15:10:04.006Z,94660.31
2022-12-05T15:12:49.032Z,94665.69
2022-12-05T15:15:25.651Z,94661.53
2022-12-05T15:18:14.981Z,94666.19
2022-12-05T15:21:08.929Z,94676.47
2022-12-05T15:23:42.785Z,94681.69
2022-12-05T15:26:46.926Z,94677.69
2022-12-05T15:29:26.612Z,94678.53
2022-12-05T15:31:57.248Z,94680.44
2022-12-05T15:34:49.563Z,94686.72
2022-12-05T15:37:22.822Z,94684.38
2022-12-05T15:40:21.852Z,94686.72
2022-12-05T15:42:51.884Z,94690.28
2022-12-05T15:45:28.073Z,94692.31
2022-12-05T15:48:07.855Z,94706.44
2022-12-05T15:50:43.005Z,94709.97
2022-12-05T15:53:37.624Z,94718.44
2022-12-05T15:56:08.490Z,94716.66
2022-12-05T15:58:45.320Z,94712.16
2022-12-05T16:01:25.384Z,94718.44
2022-12-05T16:04:15.907Z,94712.66
2022-12-05T16:06:48.914Z,94714.81
2022-12-05T16:09:25.667Z,94719.47
2022-12-05T16:11:55.474Z,94713.25
2022-12-05T16:14:57.800Z,94733.28
2022-12-05T16:17:16.621Z,94730.00
2022-12-05T16:19:43.819Z,94729.06
2022-12-05T16:22:13.347Z,94734.97
2022-12-05T16:24:55.004Z,94723.03
2022-12-05T16:27:25.622Z,94729.06
2022-12-05T16:30:31.426Z,94727.91
2022-12-05T16:33:03.608Z,94738.88
2022-12-05T16:35:43.911Z,94735.47
2022-12-05T16:38:19.542Z,94736.41
2022-12-05T16:40:46.266Z,94730.63
2022-12-05T16:43:40.859Z,94733.38
2022-12-05T16:46:13.694Z,94739.78
2022-12-05T16:48:45.501Z,94731.28
2022-12-05T16:51:18.251Z,94730.81
2022-12-05T16:53:50.916Z,94732.84
2022-12-05T16:56:26.488Z,94728.97
2022-12-05T16:58:53.690Z,94720.03
2022-12-05T17:01:27.116Z,94719.75
2022-12-05T17:03:55.570Z,94723.22
2022-12-05T17:06:25.428Z,94724.38
2022-12-05T17:08:54.473Z,94712.97
2022-12-05T17:11:28.147Z,94720.66
2022-12-05T17:13:57.370Z,94723.38
2022-12-05T17:16:26.638Z,94721.03
2022-12-05T17:18:53.649Z,94725.75
2022-12-05T17:21:23.920Z,94726.97
2022-12-05T17:23:51.561Z,94726.50
2022-12-05T17:26:21.801Z,94722.75
2022-12-05T17:28:49.597Z,94705.78
2022-12-05T17:31:20.254Z,94732.47
2022-12-05T17:33:48.425Z,94727.66
2022-12-05T17:36:15.977Z,94726.81
2022-12-05T17:38:43.417Z,94720.47
2022-12-05T17:41:20.350Z,94716.94
2022-12-05T17:43:47.434Z,94719.88
2022-12-05T17:46:19.285Z,94716.94
2022-12-05T17:48:47.758Z,94719.31
2022-12-05T17:51:14.829Z,94725.81
2022-12-05T17:53:44.657Z,94724.28
2022-12-05T17:56:12.543Z,94728.16
2022-12-05T17:58:39.985Z,94726.63
2022-12-05T18:01:07.143Z,94730.88
2022-12-05T18:03:34.067Z,94728.75
2022-12-05T18:06:03.869Z,94727.50
2022-12-05T18:08:30.652Z,94735.84
2022-12-05T18:10:58.418Z,94727.34
2022-12-05T18:13:25.141Z,94726.41
2022-12-05T18:15:58.239Z,94732.22
2022-12-05T18:18:27.520Z,94725.72
2022-12-05T18:20:54.283Z,94719.59
2022-12-05T18:23:21.125Z,94730.69
2022-12-05T18:26:00.309Z,94748.38
2022-12-05T18:28:27.543Z,94739.03
2022-12-05T18:31:09.730Z,94742.97
2022-12-05T18:33:36.938Z,94750.75
2022-12-05T18:36:17.830Z,94742.13
2022-12-05T18:38:51.455Z,94740.94
2022-12-05T18:41:18.406Z,94757.13
2022-12-05T18:43:45.152Z,94765.13
2022-12-05T18:46:11.952Z,94767.38
2022-12-05T18:48:40.881Z,94764.75
2022-12-05T18:51:14.656Z,94764.19
2022-12-05T18:53:42.138Z,94761.09
2022-12-05T18:56:27.914Z,94763.78
2022-12-05T18:59:05.514Z,94774.44
2022-12-05T19:01:36.324Z,94758.94
2022-12-05T19:04:06.337Z,94774.28
2022-12-05T19:06:36.808Z,94763.66
2022-12-05T19:09:11.612Z,94771.44
2022-12-05T19:11:47.162Z,94779.22
2022-12-05T19:14:15.860Z,94776.22
2022-12-05T19:16:42.775Z,94759.53
2022-12-05T19:19:13.432Z,94783.28
2022-12-05T19:21:40.978Z,94782.94
2022-12-05T19:24:10.380Z,94786.00
2022-12-05T19:26:37.343Z,94779.16
2022-12-05T19:29:04.411Z,94776.69
2022-12-05T19:31:31.872Z,94772.31
2022-12-05T19:34:00.762Z,94783.19
2022-12-05T19:36:48.710Z,94794.50
2022-12-05T19:39:23.614Z,94777.75
2022-12-05T19:41:50.612Z,94797.88
2022-12-05T19:44:17.835Z,94792.94
2022-12-05T19:46:44.934Z,94793.75
2022-12-05T19:49:14.349Z,94785.25
2022-12-05T19:51:41.449Z,94789.38
2022-12-05T19:54:09.300Z,94794.56
2022-12-05T19:56:36.950Z,94786.78
2022-12-05T19:59:05.632Z,94801.81
2022-12-05T20:01:39.259Z,94803.44
2022-12-05T20:04:12.403Z,94800.97
2022-12-05T20:06:47.973Z,94787.63
2022-12-05T20:09:17.953Z,94787.50
2022-12-05T20:11:52.623Z,94790.22
2022-12-05T20:14:22.992Z,94805.31
2022-12-05T20:16:49.827Z,94799.41
2022-12-05T20:19:16.680Z,94797.78
2022-12-05T20:21:44.601Z,94792.31
2022-12-05T20:24:12.109Z,94802.69
2022-12-05T20:26:44.417Z,94788.41
2022-12-05T20:29:11.363Z,94783.56
2022-12-05T20:31:42.859Z,94797.00
2022-12-05T20:34:13.702Z,94788.41
2022-12-05T20:36:41.093Z,94786.88
2022-12-05T20:39:14.050Z,94791.75
2022-12-05T20:41:40.877Z,94784.94
2022-12-05T20:44:08.670Z,94782.09
2022-12-05T20:46:36.996Z,94769.13
2022-12-05T20:49:04.132Z,94776.00
2022-12-05T20:51:34.414Z,94772.47
2022-12-05T20:54:03.330Z,94789.22
2022-12-05T20:56:32.336Z,94789.13
2022-12-05T20:59:02.272Z,94786.75
2022-12-05T21:01:32.903Z,94787.19
2022-12-05T21:04:01.341Z,94789.69
2022-12-05T21:06:31.743Z,94776.34
2022-12-05T21:09:00.577Z,94793.81
2022-12-05T21:11:29.809Z,94781.69
2022-12-05T21:14:00.467Z,94792.53
2022-12-05T21:16:28.541Z,94794.22
2022-12-05T21:18:56.385Z,94786.25
2022-12-05T21:21:26.422Z,94796.09
2022-12-05T21:23:57.321Z,94794.41
2022-12-05T21:26:27.009Z,94798.44
2022-12-05T21:28:54.826Z,94783.13
2022-12-05T21:31:31.912Z,94795.84
2022-12-05T21:34:06.439Z,94789.84
2022-12-05T21:36:35.027Z,94796.44
2022-12-05T21:39:02.015Z,94775.91
2022-12-05T21:41:28.907Z,94787.75
2022-12-05T21:43:56.080Z,94770.16
2022-12-05T21:46:26.838Z,94778.13
2022-12-05T21:48:54.598Z,94783.94
2022-12-05T21:51:22.400Z,94772.94
2022-12-05T21:53:49.314Z,94774.38
2022-12-05T21:56:19.065Z,94782.78
2022-12-05T21:58:47.248Z,94780.28
2022-12-05T22:01:24.488Z,94780.06
2022-12-05T22:03:59.512Z,94776.75
2022-12-05T22:06:27.244Z,94780.53
2022-12-05T22:08:55.265Z,94786.53
2022-12-05T22:11:23.759Z,94783.13
2022-12-05T22:13:51.544Z,94780.72
2022-12-05T22:16:19.418Z,94780.72
2022-12-05T22:18:47.237Z,94789.03
2022-12-05T22:21:17.694Z,94788.16
2022-12-05T22:23:45.030Z,94778.03
2022-12-05T22:26:24.205Z,94775.78
2022-12-05T22:28:53.372Z,94766.53
2022-12-05T22:31:21.305Z,94764.31
2022-12-05T22:33:48.998Z,94781.44
2022-12-05T22:36:18.324Z,94783.31
2022-12-05T22:38:47.499Z,94770.81
2022-12-05T22:41:21.390Z,94774.13
2022-12-05T22:43:50.342Z,94770.81
2022-12-05T22:46:20.170Z,94762.53
2022-12-05T22:48:49.444Z,94768.22
2022-12-05T22:51:18.210Z,94770.81
2022-12-05T22:53:45.670Z,94757.56
2022-12-05T22:56:18.637Z,94764.41
2022-12-05T22:58:46.804Z,94762.75
2022-12-05T23:01:16.906Z,94765.13
2022-12-05T23:03:47.342Z,94766.06
2022-12-05T23:06:17.003Z,94758.41
2022-12-05T23:08:47.818Z,94763.81
2022-12-05T23:11:16.401Z,94760.63
2022-12-05T23:13:43.626Z,94755.16
2022-12-05T23:16:21.541Z,94760.22
2022-12-05T23:18:59.833Z,94757.03
2022-12-05T23:21:32.986Z,94752.34
2022-12-05T23:24:02.931Z,94747.25
2022-12-05T23:26:34.548Z,94748.56
2022-12-05T23:29:01.714Z,94741.94
2022-12-05T23:31:28.756Z,94738.63
2022-12-05T23:33:59.845Z,94737.41
2022-12-05T23:36:30.018Z,94744.22
2022-12-05T23:38:56.773Z,94738.47
2022-12-05T23:41:25.873Z,94743.31
2022-12-05T23:43:52.660Z,94743.63
2022-12-05T23:46:26.021Z,94751.78
2022-12-05T23:48:53.657Z,94753.44
2022-12-05T23:51:28.322Z,94738.13
2022-12-05T23:53:58.819Z,94747.94
2022-12-05T23:56:33.909Z,94745.56
2022-12-05T23:59:04.379Z,94743.69
